sensor_id;sensor_type;location;lat;lon;timestamp;P1;durP1;ratioP1;P2;durP2;ratioP2
22525;SDS011;11429;50.842;4.386;2023-12-29T00:06:33;10.52;;;2.03;;
22525;SDS011;11429;50.842;4.386;2023-12-29T00:13:15;9.57;;;2.20;;
22525;SDS011;11429;50.842;4.386;2023-12-29T00:19:26;9.48;;;2.33;;
22525;SDS011;11429;50.842;4.386;2023-12-29T00:22:40;13.18;;;2.58;;
22525;SDS011;11429;50.842;4.386;2023-12-29T00:32:45;7.32;;;2.30;;
22525;SDS011;11429;50.842;4.386;2023-12-29T00:35:36;12.23;;;2.33;;
22525;SDS011;11429;50.842;4.386;2023-12-29T00:38:45;12.93;;;2.88;;
22525;SDS011;11429;50.842;4.386;2023-12-29T05:38:50;13.40;;;3.42;;
22525;SDS011;11429;50.842;4.386;2023-12-29T05:41:16;11.45;;;2.47;;
22525;SDS011;11429;50.842;4.386;2023-12-29T05:43:43;10.07;;;2.00;;
22525;SDS011;11429;50.842;4.386;2023-12-29T05:46:10;12.90;;;2.17;;
22525;SDS011;11429;50.842;4.386;2023-12-29T05:48:39;11.38;;;2.17;;
22525;SDS011;11429;50.842;4.386;2023-12-29T05:51:08;12.85;;;2.67;;
22525;SDS011;11429;50.842;4.386;2023-12-29T05:53:35;9.48;;;2.85;;
22525;SDS011;11429;50.842;4.386;2023-12-29T05:56:01;9.48;;;2.20;;
22525;SDS011;11429;50.842;4.386;2023-12-29T05:58:27;14.02;;;2.75;;
22525;SDS011;11429;50.842;4.386;2023-12-29T06:00:54;10.65;;;2.10;;
22525;SDS011;11429;50.842;4.386;2023-12-29T06:03:20;13.13;;;2.60;;
22525;SDS011;11429;50.842;4.386;2023-12-29T06:05:46;12.13;;;2.92;;
22525;SDS011;11429;50.842;4.386;2023-12-29T06:08:12;15.57;;;2.42;;
22525;SDS011;11429;50.842;4.386;2023-12-29T06:10:38;12.32;;;2.25;;
22525;SDS011;11429;50.842;4.386;2023-12-29T06:13:03;15.02;;;2.85;;
22525;SDS011;11429;50.842;4.386;2023-12-29T06:15:30;11.02;;;2.60;;
22525;SDS011;11429;50.842;4.386;2023-12-29T06:17:56;7.55;;;2.03;;
22525;SDS011;11429;50.842;4.386;2023-12-29T06:20:22;7.50;;;2.20;;
22525;SDS011;11429;50.842;4.386;2023-12-29T06:22:47;11.88;;;2.60;;
22525;SDS011;11429;50.842;4.386;2023-12-29T06:25:13;11.95;;;2.83;;
22525;SDS011;11429;50.842;4.386;2023-12-29T06:27:40;11.15;;;2.28;;
22525;SDS011;11429;50.842;4.386;2023-12-29T06:30:06;8.60;;;2.20;;
22525;SDS011;11429;50.842;4.386;2023-12-29T06:32:33;9.60;;;2.70;;
22525;SDS011;11429;50.842;4.386;2023-12-29T06:34:59;10.27;;;2.25;;
22525;SDS011;11429;50.842;4.386;2023-12-29T06:37:27;15.77;;;2.72;;
22525;SDS011;11429;50.842;4.386;2023-12-29T06:39:52;9.85;;;2.08;;
22525;SDS011;11429;50.842;4.386;2023-12-29T06:42:18;11.40;;;2.38;;
22525;SDS011;11429;50.842;4.386;2023-12-29T06:44:45;12.88;;;2.45;;
22525;SDS011;11429;50.842;4.386;2023-12-29T06:47:11;9.65;;;2.25;;
22525;SDS011;11429;50.842;4.386;2023-12-29T06:49:37;10.10;;;2.50;;
22525;SDS011;11429;50.842;4.386;2023-12-29T06:52:04;13.60;;;2.58;;
22525;SDS011;11429;50.842;4.386;2023-12-29T06:54:30;9.77;;;1.92;;
22525;SDS011;11429;50.842;4.386;2023-12-29T06:56:56;10.65;;;2.35;;
22525;SDS011;11429;50.842;4.386;2023-12-29T06:59:22;12.85;;;2.80;;
22525;SDS011;11429;50.842;4.386;2023-12-29T07:01:48;11.07;;;2.53;;
22525;SDS011;11429;50.842;4.386;2023-12-29T07:04:14;12.35;;;2.30;;
22525;SDS011;11429;50.842;4.386;2023-12-29T07:06:40;11.77;;;2.42;;
22525;SDS011;11429;50.842;4.386;2023-12-29T07:09:06;11.85;;;2.25;;
22525;SDS011;11429;50.842;4.386;2023-12-29T07:11:33;12.38;;;2.63;;
22525;SDS011;11429;50.842;4.386;2023-12-29T07:13:59;9.80;;;1.95;;
22525;SDS011;11429;50.842;4.386;2023-12-29T07:16:25;13.63;;;2.78;;
22525;SDS011;11429;50.842;4.386;2023-12-29T07:18:51;11.05;;;2.58;;
22525;SDS011;11429;50.842;4.386;2023-12-29T07:21:17;11.77;;;2.95;;
22525;SDS011;11429;50.842;4.386;2023-12-29T07:23:43;11.23;;;2.30;;
22525;SDS011;11429;50.842;4.386;2023-12-29T07:26:09;11.82;;;2.72;;
22525;SDS011;11429;50.842;4.386;2023-12-29T07:28:35;10.73;;;2.20;;
22525;SDS011;11429;50.842;4.386;2023-12-29T07:31:00;14.05;;;2.72;;
22525;SDS011;11429;50.842;4.386;2023-12-29T07:33:27;8.55;;;2.22;;
22525;SDS011;11429;50.842;4.386;2023-12-29T07:35:53;8.98;;;2.65;;
22525;SDS011;11429;50.842;4.386;2023-12-29T07:38:19;12.18;;;2.55;;
22525;SDS011;11429;50.842;4.386;2023-12-29T07:40:45;9.82;;;2.38;;
22525;SDS011;11429;50.842;4.386;2023-12-29T07:43:12;10.15;;;2.35;;
22525;SDS011;11429;50.842;4.386;2023-12-29T07:45:38;11.98;;;2.97;;
22525;SDS011;11429;50.842;4.386;2023-12-29T07:48:05;11.43;;;2.63;;
22525;SDS011;11429;50.842;4.386;2023-12-29T07:50:31;15.43;;;3.25;;
22525;SDS011;11429;50.842;4.386;2023-12-29T07:52:57;10.65;;;2.70;;
22525;SDS011;11429;50.842;4.386;2023-12-29T07:55:25;16.83;;;2.90;;
22525;SDS011;11429;50.842;4.386;2023-12-29T07:57:51;10.13;;;2.00;;
22525;SDS011;11429;50.842;4.386;2023-12-29T08:00:17;10.93;;;2.50;;
22525;SDS011;11429;50.842;4.386;2023-12-29T08:02:49;8.02;;;1.92;;
22525;SDS011;11429;50.842;4.386;2023-12-29T08:05:15;8.48;;;2.13;;
22525;SDS011;11429;50.842;4.386;2023-12-29T08:07:41;6.50;;;1.83;;
22525;SDS011;11429;50.842;4.386;2023-12-29T08:10:08;9.88;;;2.10;;
22525;SDS011;11429;50.842;4.386;2023-12-29T08:12:34;11.15;;;2.20;;
22525;SDS011;11429;50.842;4.386;2023-12-29T08:15:01;15.43;;;2.45;;
22525;SDS011;11429;50.842;4.386;2023-12-29T08:17:31;10.90;;;2.05;;
22525;SDS011;11429;50.842;4.386;2023-12-29T08:19:56;11.68;;;2.63;;
22525;SDS011;11429;50.842;4.386;2023-12-29T08:22:22;9.95;;;1.90;;
22525;SDS011;11429;50.842;4.386;2023-12-29T08:24:48;7.00;;;1.90;;
22525;SDS011;11429;50.842;4.386;2023-12-29T08:27:15;11.73;;;2.65;;
22525;SDS011;11429;50.842;4.386;2023-12-29T08:29:48;9.60;;;2.15;;
22525;SDS011;11429;50.842;4.386;2023-12-29T08:32:14;11.40;;;2.38;;
22525;SDS011;11429;50.842;4.386;2023-12-29T08:34:40;14.05;;;2.00;;
22525;SDS011;11429;50.842;4.386;2023-12-29T08:37:06;12.38;;;2.97;;
22525;SDS011;11429;50.842;4.386;2023-12-29T08:39:32;10.60;;;2.67;;
22525;SDS011;11429;50.842;4.386;2023-12-29T08:41:57;10.38;;;1.73;;
22525;SDS011;11429;50.842;4.386;2023-12-29T08:44:23;11.63;;;2.65;;
22525;SDS011;11429;50.842;4.386;2023-12-29T08:46:49;13.52;;;2.63;;
22525;SDS011;11429;50.842;4.386;2023-12-29T08:49:15;12.73;;;3.10;;
22525;SDS011;11429;50.842;4.386;2023-12-29T08:51:41;10.50;;;2.10;;
22525;SDS011;11429;50.842;4.386;2023-12-29T08:54:07;14.32;;;2.95;;
22525;SDS011;11429;50.842;4.386;2023-12-29T08:56:32;9.50;;;2.30;;
22525;SDS011;11429;50.842;4.386;2023-12-29T08:58:58;9.90;;;2.08;;
22525;SDS011;11429;50.842;4.386;2023-12-29T09:01:24;7.03;;;2.00;;
22525;SDS011;11429;50.842;4.386;2023-12-29T09:03:50;9.77;;;2.35;;
22525;SDS011;11429;50.842;4.386;2023-12-29T09:06:15;12.90;;;2.22;;
22525;SDS011;11429;50.842;4.386;2023-12-29T09:08:41;13.40;;;2.55;;
22525;SDS011;11429;50.842;4.386;2023-12-29T09:11:07;9.75;;;2.42;;
22525;SDS011;11429;50.842;4.386;2023-12-29T09:13:33;8.98;;;2.47;;
22525;SDS011;11429;50.842;4.386;2023-12-29T09:15:58;13.32;;;2.28;;
22525;SDS011;11429;50.842;4.386;2023-12-29T09:18:24;8.77;;;1.90;;
22525;SDS011;11429;50.842;4.386;2023-12-29T09:20:50;15.45;;;2.88;;
22525;SDS011;11429;50.842;4.386;2023-12-29T09:23:16;11.77;;;3.33;;
22525;SDS011;11429;50.842;4.386;2023-12-29T09:25:42;10.73;;;2.75;;
22525;SDS011;11429;50.842;4.386;2023-12-29T09:28:08;9.05;;;2.10;;
22525;SDS011;11429;50.842;4.386;2023-12-29T09:30:33;11.35;;;2.83;;
22525;SDS011;11429;50.842;4.386;2023-12-29T09:32:59;8.68;;;2.50;;
22525;SDS011;11429;50.842;4.386;2023-12-29T09:35:25;7.20;;;2.33;;
22525;SDS011;11429;50.842;4.386;2023-12-29T09:37:51;9.32;;;2.75;;
22525;SDS011;11429;50.842;4.386;2023-12-29T09:40:17;12.45;;;2.63;;
22525;SDS011;11429;50.842;4.386;2023-12-29T09:42:43;12.15;;;2.67;;
22525;SDS011;11429;50.842;4.386;2023-12-29T09:45:12;10.65;;;2.53;;
22525;SDS011;11429;50.842;4.386;2023-12-29T09:47:39;13.05;;;3.38;;
22525;SDS011;11429;50.842;4.386;2023-12-29T09:50:07;12.50;;;2.40;;
22525;SDS011;11429;50.842;4.386;2023-12-29T09:52:35;10.25;;;2.38;;
22525;SDS011;11429;50.842;4.386;2023-12-29T09:55:07;8.68;;;2.63;;
22525;SDS011;11429;50.842;4.386;2023-12-29T09:57:37;9.07;;;3.05;;
22525;SDS011;11429;50.842;4.386;2023-12-29T10:00:03;6.82;;;2.13;;
22525;SDS011;11429;50.842;4.386;2023-12-29T10:02:30;9.02;;;2.55;;
22525;SDS011;11429;50.842;4.386;2023-12-29T10:04:56;12.63;;;2.33;;
22525;SDS011;11429;50.842;4.386;2023-12-29T10:07:26;9.60;;;2.30;;
22525;SDS011;11429;50.842;4.386;2023-12-29T10:09:56;9.52;;;2.63;;
22525;SDS011;11429;50.842;4.386;2023-12-29T10:12:24;7.85;;;2.20;;
22525;SDS011;11429;50.842;4.386;2023-12-29T10:17:32;11.02;;;2.80;;
22525;SDS011;11429;50.842;4.386;2023-12-29T10:20:31;8.32;;;2.25;;
22525;SDS011;11429;50.842;4.386;2023-12-29T10:23:16;12.70;;;2.58;;
22525;SDS011;11429;50.842;4.386;2023-12-29T10:25:45;13.00;;;2.60;;
22525;SDS011;11429;50.842;4.386;2023-12-29T10:28:12;8.80;;;2.55;;
22525;SDS011;11429;50.842;4.386;2023-12-29T10:30:38;13.15;;;2.30;;
22525;SDS011;11429;50.842;4.386;2023-12-29T10:33:05;6.72;;;1.80;;
22525;SDS011;11429;50.842;4.386;2023-12-29T10:35:31;12.65;;;3.22;;
22525;SDS011;11429;50.842;4.386;2023-12-29T10:38:09;10.25;;;2.20;;
22525;SDS011;11429;50.842;4.386;2023-12-29T10:40:36;4.35;;;2.10;;
22525;SDS011;11429;50.842;4.386;2023-12-29T10:43:02;7.75;;;1.92;;
22525;SDS011;11429;50.842;4.386;2023-12-29T10:45:32;10.25;;;2.08;;
22525;SDS011;11429;50.842;4.386;2023-12-29T10:48:01;9.00;;;2.20;;
22525;SDS011;11429;50.842;4.386;2023-12-29T10:50:27;11.63;;;2.28;;
22525;SDS011;11429;50.842;4.386;2023-12-29T10:55:42;5.72;;;1.95;;
22525;SDS011;11429;50.842;4.386;2023-12-29T10:58:08;11.13;;;2.33;;
22525;SDS011;11429;50.842;4.386;2023-12-29T11:00:34;8.32;;;2.58;;
22525;SDS011;11429;50.842;4.386;2023-12-29T11:03:03;10.63;;;2.45;;
22525;SDS011;11429;50.842;4.386;2023-12-29T11:05:29;10.48;;;2.30;;
22525;SDS011;11429;50.842;4.386;2023-12-29T11:07:55;7.60;;;2.00;;
22525;SDS011;11429;50.842;4.386;2023-12-29T11:10:21;10.20;;;2.45;;
22525;SDS011;11429;50.842;4.386;2023-12-29T11:12:48;9.38;;;2.03;;
22525;SDS011;11429;50.842;4.386;2023-12-29T11:15:14;9.73;;;2.00;;
22525;SDS011;11429;50.842;4.386;2023-12-29T11:17:41;8.55;;;2.25;;
22525;SDS011;11429;50.842;4.386;2023-12-29T11:20:14;13.07;;;2.30;;
22525;SDS011;11429;50.842;4.386;2023-12-29T11:22:42;9.02;;;2.03;;
22525;SDS011;11429;50.842;4.386;2023-12-29T11:25:08;9.43;;;1.92;;
22525;SDS011;11429;50.842;4.386;2023-12-29T11:27:35;9.00;;;2.38;;
22525;SDS011;11429;50.842;4.386;2023-12-29T11:30:01;6.63;;;1.92;;
22525;SDS011;11429;50.842;4.386;2023-12-29T11:32:31;13.95;;;2.03;;
22525;SDS011;11429;50.842;4.386;2023-12-29T11:35:39;7.60;;;1.92;;
22525;SDS011;11429;50.842;4.386;2023-12-29T11:38:28;9.82;;;2.00;;
22525;SDS011;11429;50.842;4.386;2023-12-29T11:41:16;10.35;;;2.15;;
22525;SDS011;11429;50.842;4.386;2023-12-29T11:43:57;7.40;;;2.17;;
22525;SDS011;11429;50.842;4.386;2023-12-29T11:49:00;8.63;;;2.00;;
22525;SDS011;11429;50.842;4.386;2023-12-29T11:51:36;11.88;;;2.65;;
22525;SDS011;11429;50.842;4.386;2023-12-29T11:54:05;8.00;;;1.98;;
22525;SDS011;11429;50.842;4.386;2023-12-29T11:56:36;6.88;;;2.50;;
22525;SDS011;11429;50.842;4.386;2023-12-29T11:59:14;10.05;;;2.83;;
22525;SDS011;11429;50.842;4.386;2023-12-29T12:01:41;10.50;;;2.70;;
22525;SDS011;11429;50.842;4.386;2023-12-29T12:09:47;6.88;;;2.15;;
22525;SDS011;11429;50.842;4.386;2023-12-29T12:15:30;10.30;;;2.30;;
22525;SDS011;11429;50.842;4.386;2023-12-29T12:18:10;11.20;;;2.38;;
22525;SDS011;11429;50.842;4.386;2023-12-29T12:20:36;12.63;;;4.18;;
22525;SDS011;11429;50.842;4.386;2023-12-29T12:23:10;11.38;;;2.45;;
22525;SDS011;11429;50.842;4.386;2023-12-29T12:25:42;13.90;;;2.63;;
22525;SDS011;11429;50.842;4.386;2023-12-29T12:28:10;8.38;;;2.75;;
22525;SDS011;11429;50.842;4.386;2023-12-29T12:30:39;8.73;;;2.35;;
22525;SDS011;11429;50.842;4.386;2023-12-29T12:33:05;8.30;;;2.30;;
22525;SDS011;11429;50.842;4.386;2023-12-29T12:35:31;9.70;;;2.53;;
22525;SDS011;11429;50.842;4.386;2023-12-29T12:38:16;9.90;;;2.28;;
22525;SDS011;11429;50.842;4.386;2023-12-29T12:40:46;8.15;;;2.30;;
22525;SDS011;11429;50.842;4.386;2023-12-29T12:43:15;8.60;;;2.22;;
22525;SDS011;11429;50.842;4.386;2023-12-29T12:45:42;8.60;;;2.15;;
22525;SDS011;11429;50.842;4.386;2023-12-29T12:48:23;8.98;;;2.30;;
22525;SDS011;11429;50.842;4.386;2023-12-29T12:50:55;4.22;;;1.58;;
22525;SDS011;11429;50.842;4.386;2023-12-29T12:53:22;7.28;;;1.45;;
22525;SDS011;11429;50.842;4.386;2023-12-29T12:55:49;7.57;;;1.90;;
22525;SDS011;11429;50.842;4.386;2023-12-29T12:58:17;7.18;;;2.00;;
22525;SDS011;11429;50.842;4.386;2023-12-29T13:00:46;7.13;;;1.67;;
22525;SDS011;11429;50.842;4.386;2023-12-29T13:03:12;6.07;;;1.58;;
22525;SDS011;11429;50.842;4.386;2023-12-29T13:05:39;5.80;;;1.90;;
22525;SDS011;11429;50.842;4.386;2023-12-29T13:08:05;7.25;;;2.13;;
22525;SDS011;11429;50.842;4.386;2023-12-29T13:10:31;10.55;;;2.42;;
22525;SDS011;11429;50.842;4.386;2023-12-29T13:12:57;8.55;;;1.80;;
22525;SDS011;11429;50.842;4.386;2023-12-29T13:15:23;9.40;;;2.15;;
22525;SDS011;11429;50.842;4.386;2023-12-29T13:17:55;4.57;;;1.63;;
22525;SDS011;11429;50.842;4.386;2023-12-29T13:20:21;3.85;;;1.55;;
22525;SDS011;11429;50.842;4.386;2023-12-29T13:22:50;7.15;;;1.95;;
22525;SDS011;11429;50.842;4.386;2023-12-29T13:25:25;4.32;;;1.63;;
22525;SDS011;11429;50.842;4.386;2023-12-29T13:27:53;6.35;;;1.83;;
22525;SDS011;11429;50.842;4.386;2023-12-29T13:30:20;5.45;;;1.80;;
22525;SDS011;11429;50.842;4.386;2023-12-29T13:32:47;7.05;;;1.73;;
22525;SDS011;11429;50.842;4.386;2023-12-29T13:40:14;7.03;;;1.67;;
22525;SDS011;11429;50.842;4.386;2023-12-29T13:42:58;6.25;;;2.03;;
22525;SDS011;11429;50.842;4.386;2023-12-29T13:45:27;7.40;;;1.88;;
22525;SDS011;11429;50.842;4.386;2023-12-29T13:47:57;7.78;;;1.50;;
22525;SDS011;11429;50.842;4.386;2023-12-29T13:50:25;8.55;;;2.42;;
22525;SDS011;11429;50.842;4.386;2023-12-29T13:52:51;6.68;;;2.45;;
22525;SDS011;11429;50.842;4.386;2023-12-29T13:55:21;5.53;;;1.60;;
22525;SDS011;11429;50.842;4.386;2023-12-29T13:57:47;4.55;;;1.58;;
22525;SDS011;11429;50.842;4.386;2023-12-29T14:00:40;5.28;;;1.58;;
22525;SDS011;11429;50.842;4.386;2023-12-29T14:03:09;5.70;;;1.60;;
22525;SDS011;11429;50.842;4.386;2023-12-29T14:05:43;4.60;;;1.45;;
22525;SDS011;11429;50.842;4.386;2023-12-29T14:08:54;3.80;;;1.52;;
22525;SDS011;11429;50.842;4.386;2023-12-29T14:11:13;8.40;;;2.30;;
22525;SDS011;11429;50.842;4.386;2023-12-29T14:13:42;5.65;;;1.88;;
22525;SDS011;11429;50.842;4.386;2023-12-29T14:16:13;6.83;;;1.93;;
22525;SDS011;11429;50.842;4.386;2023-12-29T14:18:48;7.05;;;2.30;;
22525;SDS011;11429;50.842;4.386;2023-12-29T14:21:29;9.07;;;2.50;;
22525;SDS011;11429;50.842;4.386;2023-12-29T14:26:31;7.43;;;2.25;;
22525;SDS011;11429;50.842;4.386;2023-12-29T14:29:04;5.20;;;1.90;;
22525;SDS011;11429;50.842;4.386;2023-12-29T14:31:35;4.68;;;2.03;;
22525;SDS011;11429;50.842;4.386;2023-12-29T14:34:02;9.38;;;2.38;;
22525;SDS011;11429;50.842;4.386;2023-12-29T14:36:29;6.03;;;2.05;;
22525;SDS011;11429;50.842;4.386;2023-12-29T14:38:56;4.53;;;2.47;;
22525;SDS011;11429;50.842;4.386;2023-12-29T14:41:22;8.25;;;2.40;;
22525;SDS011;11429;50.842;4.386;2023-12-29T14:43:48;6.68;;;2.30;;
22525;SDS011;11429;50.842;4.386;2023-12-29T14:46:13;7.25;;;2.47;;
22525;SDS011;11429;50.842;4.386;2023-12-29T14:48:39;5.00;;;1.85;;
22525;SDS011;11429;50.842;4.386;2023-12-29T14:51:06;5.40;;;1.80;;
22525;SDS011;11429;50.842;4.386;2023-12-29T14:53:32;5.68;;;2.00;;
22525;SDS011;11429;50.842;4.386;2023-12-29T14:55:59;3.35;;;1.40;;
22525;SDS011;11429;50.842;4.386;2023-12-29T14:58:25;5.15;;;1.90;;
22525;SDS011;11429;50.842;4.386;2023-12-29T15:00:50;7.57;;;2.00;;
22525;SDS011;11429;50.842;4.386;2023-12-29T15:03:16;4.22;;;1.60;;
22525;SDS011;11429;50.842;4.386;2023-12-29T15:05:44;5.03;;;1.77;;
22525;SDS011;11429;50.842;4.386;2023-12-29T15:08:09;6.25;;;1.85;;
22525;SDS011;11429;50.842;4.386;2023-12-29T15:10:35;9.48;;;2.13;;
22525;SDS011;11429;50.842;4.386;2023-12-29T15:13:01;7.07;;;2.50;;
22525;SDS011;11429;50.842;4.386;2023-12-29T15:15:27;6.75;;;1.80;;
22525;SDS011;11429;50.842;4.386;2023-12-29T15:17:53;6.78;;;2.13;;
22525;SDS011;11429;50.842;4.386;2023-12-29T15:20:19;7.80;;;2.35;;
22525;SDS011;11429;50.842;4.386;2023-12-29T15:22:45;7.85;;;2.08;;
22525;SDS011;11429;50.842;4.386;2023-12-29T15:25:10;7.43;;;2.03;;
22525;SDS011;11429;50.842;4.386;2023-12-29T15:27:36;6.47;;;2.10;;
22525;SDS011;11429;50.842;4.386;2023-12-29T15:30:02;6.28;;;1.88;;
22525;SDS011;11429;50.842;4.386;2023-12-29T15:32:29;10.07;;;2.20;;
22525;SDS011;11429;50.842;4.386;2023-12-29T15:34:54;5.35;;;2.25;;
22525;SDS011;11429;50.842;4.386;2023-12-29T15:37:20;5.05;;;1.92;;
22525;SDS011;11429;50.842;4.386;2023-12-29T15:39:46;5.47;;;1.77;;
22525;SDS011;11429;50.842;4.386;2023-12-29T15:42:12;4.88;;;1.88;;
22525;SDS011;11429;50.842;4.386;2023-12-29T15:44:38;5.65;;;1.95;;
22525;SDS011;11429;50.842;4.386;2023-12-29T15:47:04;2.75;;;1.60;;
22525;SDS011;11429;50.842;4.386;2023-12-29T15:49:29;8.50;;;2.22;;
22525;SDS011;11429;50.842;4.386;2023-12-29T15:51:56;8.43;;;2.65;;
22525;SDS011;11429;50.842;4.386;2023-12-29T15:54:22;8.88;;;2.15;;
22525;SDS011;11429;50.842;4.386;2023-12-29T15:56:47;7.15;;;2.40;;
22525;SDS011;11429;50.842;4.386;2023-12-29T15:59:13;7.03;;;2.35;;
22525;SDS011;11429;50.842;4.386;2023-12-29T16:01:39;8.77;;;1.92;;
22525;SDS011;11429;50.842;4.386;2023-12-29T16:04:05;9.73;;;2.38;;
22525;SDS011;11429;50.842;4.386;2023-12-29T16:06:31;7.30;;;1.92;;
22525;SDS011;11429;50.842;4.386;2023-12-29T16:08:57;9.88;;;2.20;;
22525;SDS011;11429;50.842;4.386;2023-12-29T16:11:23;11.13;;;2.22;;
22525;SDS011;11429;50.842;4.386;2023-12-29T16:13:51;7.90;;;2.55;;
22525;SDS011;11429;50.842;4.386;2023-12-29T16:16:17;8.15;;;2.20;;
22525;SDS011;11429;50.842;4.386;2023-12-29T16:18:44;9.48;;;2.40;;
22525;SDS011;11429;50.842;4.386;2023-12-29T16:21:10;7.32;;;2.20;;
22525;SDS011;11429;50.842;4.386;2023-12-29T16:23:37;9.07;;;2.35;;
22525;SDS011;11429;50.842;4.386;2023-12-29T16:26:06;12.65;;;3.20;;
22525;SDS011;11429;50.842;4.386;2023-12-29T16:28:33;7.70;;;2.15;;
22525;SDS011;11429;50.842;4.386;2023-12-29T16:31:06;7.30;;;2.30;;
22525;SDS011;11429;50.842;4.386;2023-12-29T16:33:33;7.05;;;2.28;;
22525;SDS011;11429;50.842;4.386;2023-12-29T16:36:06;10.35;;;2.65;;
22525;SDS011;11429;50.842;4.386;2023-12-29T16:38:33;9.45;;;2.40;;
22525;SDS011;11429;50.842;4.386;2023-12-29T16:40:59;8.73;;;2.42;;
22525;SDS011;11429;50.842;4.386;2023-12-29T16:43:24;11.55;;;3.08;;
22525;SDS011;11429;50.842;4.386;2023-12-29T16:45:50;5.50;;;2.20;;
22525;SDS011;11429;50.842;4.386;2023-12-29T16:48:16;10.85;;;2.53;;
22525;SDS011;11429;50.842;4.386;2023-12-29T16:50:42;12.35;;;2.70;;
22525;SDS011;11429;50.842;4.386;2023-12-29T16:53:08;7.22;;;2.53;;
22525;SDS011;11429;50.842;4.386;2023-12-29T16:55:34;9.43;;;3.10;;
22525;SDS011;11429;50.842;4.386;2023-12-29T16:58:00;7.63;;;2.53;;
22525;SDS011;11429;50.842;4.386;2023-12-29T17:00:28;9.68;;;2.58;;
22525;SDS011;11429;50.842;4.386;2023-12-29T17:02:54;10.93;;;2.63;;
22525;SDS011;11429;50.842;4.386;2023-12-29T17:05:19;8.52;;;2.20;;
22525;SDS011;11429;50.842;4.386;2023-12-29T17:07:45;7.93;;;2.30;;
22525;SDS011;11429;50.842;4.386;2023-12-29T17:10:11;7.47;;;2.20;;
22525;SDS011;11429;50.842;4.386;2023-12-29T17:12:37;9.88;;;2.67;;
22525;SDS011;11429;50.842;4.386;2023-12-29T17:15:03;8.75;;;2.92;;
22525;SDS011;11429;50.842;4.386;2023-12-29T17:17:30;8.25;;;3.22;;
22525;SDS011;11429;50.842;4.386;2023-12-29T17:19:59;13.10;;;2.80;;
22525;SDS011;11429;50.842;4.386;2023-12-29T17:22:25;8.73;;;3.47;;
22525;SDS011;11429;50.842;4.386;2023-12-29T17:24:51;9.93;;;2.53;;
22525;SDS011;11429;50.842;4.386;2023-12-29T17:27:16;10.57;;;2.78;;
22525;SDS011;11429;50.842;4.386;2023-12-29T17:29:42;12.10;;;3.05;;
22525;SDS011;11429;50.842;4.386;2023-12-29T17:32:08;8.75;;;2.67;;
22525;SDS011;11429;50.842;4.386;2023-12-29T17:34:34;8.50;;;2.72;;
22525;SDS011;11429;50.842;4.386;2023-12-29T17:37:00;7.30;;;2.10;;
22525;SDS011;11429;50.842;4.386;2023-12-29T17:39:25;12.00;;;2.55;;
22525;SDS011;11429;50.842;4.386;2023-12-29T17:41:51;7.82;;;2.47;;
22525;SDS011;11429;50.842;4.386;2023-12-29T17:44:17;8.95;;;2.67;;
22525;SDS011;11429;50.842;4.386;2023-12-29T17:46:43;11.05;;;3.08;;
22525;SDS011;11429;50.842;4.386;2023-12-29T17:49:09;10.25;;;2.60;;
22525;SDS011;11429;50.842;4.386;2023-12-29T17:51:35;8.50;;;3.20;;
22525;SDS011;11429;50.842;4.386;2023-12-29T17:54:01;9.85;;;3.33;;
22525;SDS011;11429;50.842;4.386;2023-12-29T17:56:27;8.10;;;2.50;;
22525;SDS011;11429;50.842;4.386;2023-12-29T17:58:53;8.60;;;2.78;;
22525;SDS011;11429;50.842;4.386;2023-12-29T18:01:19;9.35;;;3.30;;
22525;SDS011;11429;50.842;4.386;2023-12-29T18:03:44;9.07;;;2.45;;
22525;SDS011;11429;50.842;4.386;2023-12-29T18:06:11;12.98;;;2.92;;
22525;SDS011;11429;50.842;4.386;2023-12-29T18:08:38;7.57;;;2.22;;
22525;SDS011;11429;50.842;4.386;2023-12-29T18:11:05;7.45;;;2.65;;
22525;SDS011;11429;50.842;4.386;2023-12-29T18:13:31;8.82;;;2.55;;
22525;SDS011;11429;50.842;4.386;2023-12-29T18:15:57;7.78;;;2.10;;
22525;SDS011;11429;50.842;4.386;2023-12-29T18:18:24;12.32;;;5.30;;
22525;SDS011;11429;50.842;4.386;2023-12-29T18:20:50;13.10;;;2.63;;
22525;SDS011;11429;50.842;4.386;2023-12-29T18:23:16;12.80;;;2.33;;
22525;SDS011;11429;50.842;4.386;2023-12-29T18:25:42;9.70;;;2.50;;
22525;SDS011;11429;50.842;4.386;2023-12-29T18:28:09;11.63;;;2.80;;
22525;SDS011;11429;50.842;4.386;2023-12-29T18:30:35;9.95;;;2.30;;
22525;SDS011;11429;50.842;4.386;2023-12-29T18:33:01;8.15;;;2.17;;
22525;SDS011;11429;50.842;4.386;2023-12-29T18:35:27;9.45;;;2.58;;
22525;SDS011;11429;50.842;4.386;2023-12-29T18:37:52;10.15;;;2.50;;
22525;SDS011;11429;50.842;4.386;2023-12-29T18:40:18;9.57;;;2.40;;
22525;SDS011;11429;50.842;4.386;2023-12-29T18:42:44;12.95;;;2.67;;
22525;SDS011;11429;50.842;4.386;2023-12-29T18:45:10;11.25;;;2.80;;
22525;SDS011;11429;50.842;4.386;2023-12-29T18:47:39;10.23;;;2.60;;
22525;SDS011;11429;50.842;4.386;2023-12-29T18:50:05;13.82;;;2.95;;
22525;SDS011;11429;50.842;4.386;2023-12-29T18:52:31;12.10;;;3.08;;
22525;SDS011;11429;50.842;4.386;2023-12-29T18:54:57;11.75;;;3.55;;
22525;SDS011;11429;50.842;4.386;2023-12-29T18:57:22;12.18;;;2.72;;
22525;SDS011;11429;50.842;4.386;2023-12-29T18:59:48;14.73;;;2.97;;
22525;SDS011;11429;50.842;4.386;2023-12-29T19:02:14;15.23;;;3.63;;
22525;SDS011;11429;50.842;4.386;2023-12-29T19:04:44;11.20;;;3.42;;
22525;SDS011;11429;50.842;4.386;2023-12-29T19:07:12;18.92;;;3.72;;
22525;SDS011;11429;50.842;4.386;2023-12-29T19:09:43;16.13;;;4.47;;
22525;SDS011;11429;50.842;4.386;2023-12-29T19:12:10;13.45;;;3.10;;
22525;SDS011;11429;50.842;4.386;2023-12-29T19:14:37;15.88;;;3.67;;
22525;SDS011;11429;50.842;4.386;2023-12-29T19:17:03;11.63;;;3.25;;
22525;SDS011;11429;50.842;4.386;2023-12-29T19:19:30;12.55;;;2.97;;
22525;SDS011;11429;50.842;4.386;2023-12-29T19:21:56;18.40;;;3.80;;
22525;SDS011;11429;50.842;4.386;2023-12-29T19:24:21;18.38;;;3.60;;
22525;SDS011;11429;50.842;4.386;2023-12-29T19:26:47;18.90;;;3.25;;
22525;SDS011;11429;50.842;4.386;2023-12-29T19:29:14;13.73;;;3.08;;
22525;SDS011;11429;50.842;4.386;2023-12-29T19:31:40;19.20;;;3.53;;
22525;SDS011;11429;50.842;4.386;2023-12-29T19:34:10;18.17;;;4.07;;
22525;SDS011;11429;50.842;4.386;2023-12-29T19:36:37;12.13;;;3.90;;
22525;SDS011;11429;50.842;4.386;2023-12-29T19:39:02;22.23;;;4.10;;
22525;SDS011;11429;50.842;4.386;2023-12-29T19:41:33;18.58;;;3.38;;
22525;SDS011;11429;50.842;4.386;2023-12-29T19:44:01;16.80;;;3.38;;
22525;SDS011;11429;50.842;4.386;2023-12-29T19:46:28;21.08;;;4.28;;
22525;SDS011;11429;50.842;4.386;2023-12-29T19:48:54;13.43;;;3.13;;
22525;SDS011;11429;50.842;4.386;2023-12-29T19:51:20;18.15;;;3.70;;
22525;SDS011;11429;50.842;4.386;2023-12-29T19:53:46;19.50;;;3.78;;
22525;SDS011;11429;50.842;4.386;2023-12-29T19:56:12;15.35;;;3.50;;
22525;SDS011;11429;50.842;4.386;2023-12-29T19:58:59;18.77;;;3.95;;
22525;SDS011;11429;50.842;4.386;2023-12-29T20:01:32;21.55;;;4.45;;
22525;SDS011;11429;50.842;4.386;2023-12-29T20:03:59;15.93;;;4.45;;
22525;SDS011;11429;50.842;4.386;2023-12-29T20:06:25;17.83;;;4.78;;
22525;SDS011;11429;50.842;4.386;2023-12-29T20:08:51;17.58;;;3.58;;
22525;SDS011;11429;50.842;4.386;2023-12-29T20:11:18;16.13;;;3.78;;
22525;SDS011;11429;50.842;4.386;2023-12-29T20:13:44;20.00;;;4.20;;
22525;SDS011;11429;50.842;4.386;2023-12-29T20:16:21;10.48;;;2.97;;
22525;SDS011;11429;50.842;4.386;2023-12-29T20:18:54;13.25;;;3.50;;
22525;SDS011;11429;50.842;4.386;2023-12-29T20:21:21;12.10;;;3.00;;
22525;SDS011;11429;50.842;4.386;2023-12-29T20:23:50;12.88;;;3.00;;
22525;SDS011;11429;50.842;4.386;2023-12-29T20:26:26;13.20;;;2.88;;
22525;SDS011;11429;50.842;4.386;2023-12-29T20:31:36;16.95;;;3.70;;